Time;durP1;ratioP1;P1;durP2;ratioP2;P2;SDS_P1;SDS_P2;PMS_P1;PMS_P2;Temp;Humidity;BMP_temperature;BMP_pressure;BME280_temperature;BME280_humidity;BME280_pressure;Samples;Min_cycle;Max_cycle;Signal;HPM_P1;HPM_P2
2021/11/16 00:02:35;;;;;;;122.53;55.00;;;;;;;4.31;100.00;99088.38;10399497;28;20053;-61
2021/11/16 00:07:40;;;;;;;124.32;54.20;;;;;;;4.34;100.00;99097.13;10382454;28;20084;-61
2021/11/16 00:12:43;;;;;;;126.32;54.75;;;;;;;4.32;100.00;99092.75;10382695;28;20100;-63
2021/11/16 00:17:47;;;;;;;129.65;57.00;;;;;;;4.35;100.00;99090.84;10389310;28;20136;-59
2021/11/16 00:22:52;;;;;;;134.45;57.60;;;;;;;4.30;100.00;99086.66;10382172;28;20053;-61
2021/11/16 00:27:58;;;;;;;122.43;56.40;;;;;;;4.30;100.00;99091.16;10386911;28;20478;-65
2021/11/16 00:33:02;;;;;;;135.38;60.13;;;;;;;4.31;100.00;99084.88;10378599;28;20045;-65
2021/11/16 00:38:08;;;;;;;145.68;62.70;;;;;;;4.30;100.00;99085.81;10383955;28;20485;-60
2021/11/16 00:43:12;;;;;;;147.65;64.00;;;;;;;4.30;100.00;99091.16;10379986;28;20419;-61
2021/11/16 00:48:17;;;;;;;159.07;65.40;;;;;;;4.28;100.00;99093.94;10377993;28;20125;-62
2021/11/16 00:53:22;;;;;;;145.48;63.90;;;;;;;4.26;100.00;99094.97;10359509;28;20056;-61
2021/11/16 00:58:26;;;;;;;144.45;62.90;;;;;;;4.26;100.00;99100.31;10384182;28;20049;-62
2021/11/16 01:03:30;;;;;;;140.32;61.80;;;;;;;4.21;100.00;99100.63;10388942;28;20070;-59
2021/11/16 01:08:35;;;;;;;137.73;61.08;;;;;;;4.19;100.00;99107.88;10381324;28;20561;-65
2021/11/16 01:13:38;;;;;;;132.90;60.60;;;;;;;4.20;100.00;99100.75;10384182;28;20064;-60
2021/11/16 01:18:42;;;;;;;118.10;56.75;;;;;;;4.20;100.00;99111.41;10370316;28;20153;-64
2021/11/16 01:23:47;;;;;;;122.38;57.28;;;;;;;4.20;100.00;99096.25;10386552;28;20042;-66
2021/11/16 01:28:50;;;;;;;122.38;57.47;;;;;;;4.16;100.00;99095.59;10390520;28;20045;-63
2021/11/16 01:33:55;;;;;;;121.22;54.90;;;;;;;4.12;100.00;99088.75;10387168;28;20418;-63
2021/11/16 01:39:01;;;;;;;124.22;57.40;;;;;;;4.17;100.00;99091.16;10383229;28;20410;-64
2021/11/16 01:44:04;;;;;;;123.95;56.90;;;;;;;4.19;100.00;99091.03;10368566;28;20092;-65
2021/11/16 01:49:09;;;;;;;128.48;60.17;;;;;;;4.16;100.00;99078.78;10367406;28;20100;-63
2021/11/16 01:54:14;;;;;;;144.77;61.40;;;;;;;4.13;100.00;99078.97;10364856;28;20613;-63
2021/11/16 01:59:19;;;;;;;135.88;62.63;;;;;;;4.14;100.00;99076.19;10364402;28;20042;-62
2021/11/16 02:04:23;;;;;;;130.85;60.42;;;;;;;4.13;100.00;99077.13;10380748;28;20054;-63
2021/11/16 02:09:28;;;;;;;141.52;63.55;;;;;;;4.11;100.00;99071.09;10381217;28;20042;-66
2021/11/16 02:14:31;;;;;;;141.77;61.70;;;;;;;4.13;100.00;99070.97;10374835;28;20076;-58
2021/11/16 02:19:34;;;;;;;146.50;60.50;;;;;;;4.14;100.00;99060.19;10381753;28;20045;-60
2021/11/16 02:24:38;;;;;;;139.18;59.38;;;;;;;4.16;100.00;99062.78;10383361;28;20395;-60
2021/11/16 02:29:42;;;;;;;138.57;61.38;;;;;;;4.11;100.00;99055.09;10386753;28;20042;-61
2021/11/16 02:34:45;;;;;;;138.43;62.20;;;;;;;4.11;100.00;99051.53;10362181;28;20053;-61
2021/11/16 02:39:50;;;;;;;145.32;62.08;;;;;;;4.09;100.00;99045.47;10371729;28;20518;-62
2021/11/16 02:44:53;;;;;;;135.75;57.70;;;;;;;4.08;100.00;99035.75;10380228;28;20046;-64
2021/11/16 02:49:56;;;;;;;141.65;61.53;;;;;;;4.07;100.00;99039.38;10389519;28;20142;-61
2021/11/16 02:55:01;;;;;;;139.52;60.05;;;;;;;4.05;100.00;99046.66;10387309;28;20037;-63
2021/11/16 03:00:06;;;;;;;134.77;58.15;;;;;;;4.03;100.00;99045.88;10377844;28;20932;-61
2021/11/16 03:05:10;;;;;;;136.68;59.42;;;;;;;4.05;100.00;99035.97;10371725;28;20410;-64
2021/11/16 03:10:15;;;;;;;134.25;60.45;;;;;;;4.06;100.00;99038.53;10388954;28;20060;-61
2021/11/16 03:15:19;;;;;;;140.88;60.35;;;;;;;4.06;100.00;99033.19;10373600;28;20046;-61
2021/11/16 03:20:23;;;;;;;146.93;62.28;;;;;;;4.04;100.00;99036.94;10351972;28;20054;-63
2021/11/16 03:25:34;;;;;;;153.82;56.90;;;;;;;4.05;100.00;99033.31;10369989;28;20046;-61
2021/11/16 03:30:37;;;;;;;150.30;57.70;;;;;;;4.06;100.00;99024.34;10379695;28;20050;-66
2021/11/16 03:35:41;;;;;;;153.00;57.90;;;;;;;4.04;100.00;99020.94;10367154;28;20057;-61
2021/11/16 03:40:49;;;;;;;160.75;60.78;;;;;;;4.04;100.00;99023.59;10385428;28;20045;-61
2021/11/16 03:45:55;;;;;;;180.02;62.17;;;;;;;4.01;100.00;99028.19;10382085;28;20042;-60
2021/11/16 03:51:00;;;;;;;177.25;59.78;;;;;;;4.00;100.00;99021.13;10382905;28;20104;-62
2021/11/16 03:56:05;;;;;;;156.60;57.08;;;;;;;4.01;100.00;99021.97;10362367;28;20128;-61
2021/11/16 04:01:10;;;;;;;166.45;60.40;;;;;;;4.03;100.00;99016.56;10383852;28;20399;-66
2021/11/16 04:06:15;;;;;;;167.77;58.53;;;;;;;3.99;100.00;99019.44;10386274;28;20080;-62
2021/11/16 04:11:20;;;;;;;171.27;61.95;;;;;;;3.99;100.00;99003.44;10380753;28;20045;-63
2021/11/16 04:16:23;;;;;;;167.70;58.08;;;;;;;4.01;100.00;99009.53;10380270;28;20096;-61
2021/11/16 04:21:27;;;;;;;150.15;55.50;;;;;;;4.02;100.00;98999.69;10381050;28;20054;-62
2021/11/16 04:26:31;;;;;;;162.52;57.92;;;;;;;4.04;100.00;98994.28;10384251;28;20044;-61
2021/11/16 04:31:34;;;;;;;154.82;54.22;;;;;;;4.04;100.00;98991.59;10384294;28;20046;-61
2021/11/16 04:36:38;;;;;;;149.20;55.70;;;;;;;4.09;100.00;98984.13;10373118;28;20055;-63
2021/11/16 04:41:44;;;;;;;162.45;56.90;;;;;;;4.11;100.00;98988.41;10382063;28;20375;-64
2021/11/16 04:46:49;;;;;;;157.38;57.63;;;;;;;4.09;100.00;98987.66;10366919;28;20149;-59
2021/11/16 04:52:06;;;;;;;167.10;57.55;;;;;;;4.09;100.00;98979.66;10379084;28;20557;-63
2021/11/16 05:02:47;;;;;;;158.10;56.50;;;;;;;4.17;100.00;98973.81;10376066;28;20057;-61
2021/11/16 05:07:55;;;;;;;129.48;50.67;;;;;;;4.18;100.00;98975.47;10374555;28;20041;-61
2021/11/16 05:13:00;;;;;;;155.15;55.58;;;;;;;4.19;100.00;98973.69;10375428;28;20049;-61
2021/11/16 05:18:04;;;;;;;152.82;55.17;;;;;;;4.17;100.00;98973.81;10357857;23;20046;-58
2021/11/16 05:23:09;;;;;;;149.93;55.42;;;;;;;4.20;100.00;98978.91;10317578;28;20480;-54
2021/11/16 05:28:14;;;;;;;127.55;48.67;;;;;;;4.22;100.00;98976.16;10321395;28;20507;-53
2021/11/16 05:33:43;;;;;;;141.20;51.95;;;;;;;4.24;100.00;98975.06;10312354;28;20044;-57
2021/11/16 05:38:47;;;;;;;127.70;48.08;;;;;;;4.25;100.00;98976.78;10317092;28;20045;-56
2021/11/16 05:43:51;;;;;;;125.38;48.08;;;;;;;4.26;100.00;98989.16;10311019;28;20599;-52
2021/11/16 05:48:56;;;;;;;132.80;50.22;;;;;;;4.26;100.00;98986.50;10316336;28;20042;-53
2021/11/16 05:54:01;;;;;;;132.30;49.88;;;;;;;4.27;100.00;98985.53;10317833;28;20056;-61
2021/11/16 05:59:05;;;;;;;117.53;46.92;;;;;;;4.27;100.00;98977.53;10325725;28;20052;-53
2021/11/16 06:04:08;;;;;;;118.20;46.72;;;;;;;4.27;100.00;98972.19;10326561;28;20483;-52
2021/11/16 06:09:12;;;;;;;123.75;46.78;;;;;;;4.26;100.00;98980.28;10323525;28;20057;-59
2021/11/16 06:14:17;;;;;;;118.32;45.60;;;;;;;4.26;100.00;98986.50;10325559;28;20413;-54
2021/11/16 06:19:23;;;;;;;121.60;48.05;;;;;;;4.27;100.00;98990.88;10320066;28;20061;-53
2021/11/16 06:24:27;;;;;;;124.88;46.60;;;;;;;4.26;100.00;98989.16;10319909;28;20076;-57
2021/11/16 06:29:31;;;;;;;131.60;48.42;;;;;;;4.28;100.00;98997.91;10322602;28;20069;-57
2021/11/16 06:34:34;;;;;;;128.65;47.58;;;;;;;4.25;100.00;98992.78;10321433;28;20042;-57
2021/11/16 06:39:37;;;;;;;106.78;43.10;;;;;;;4.25;100.00;98991.91;10327230;28;20042;-59
2021/11/16 06:44:43;;;;;;;98.75;40.60;;;;;;;4.24;100.00;98995.53;10320568;28;20057;-59
2021/11/16 06:49:48;;;;;;;102.22;42.80;;;;;;;4.28;100.00;98992.56;10319499;28;20475;-59
2021/11/16 06:54:51;;;;;;;110.90;42.80;;;;;;;4.23;100.00;98989.38;10320119;28;20077;-56
2021/11/16 06:59:56;;;;;;;93.05;41.00;;;;;;;4.26;100.00;98985.63;10318147;28;20125;-55
2021/11/16 07:04:59;;;;;;;93.82;42.40;;;;;;;4.25;100.00;98979.44;10314811;28;20046;-54
2021/11/16 07:10:02;;;;;;;89.03;38.88;;;;;;;4.24;100.00;98972.41;10315767;28;20112;-57
2021/11/16 07:15:07;;;;;;;102.45;43.13;;;;;;;4.21;100.00;98969.09;10311804;28;20121;-55
2021/11/16 07:20:12;;;;;;;99.35;43.97;;;;;;;4.20;100.00;98970.06;10302486;28;20066;-56
2021/11/16 07:25:16;;;;;;;95.35;42.45;;;;;;;4.18;100.00;98974.63;10302058;28;20129;-61
2021/11/16 07:30:24;;;;;;;88.63;40.78;;;;;;;4.18;100.00;98970.16;10287858;28;20508;-56
2021/11/16 07:35:30;;;;;;;90.35;40.70;;;;;;;4.20;100.00;98984.22;10291156;28;20058;-54
2021/11/16 07:40:35;;;;;;;97.20;41.47;;;;;;;4.23;100.00;98984.03;10310583;28;20491;-55
2021/11/16 07:45:41;;;;;;;96.40;41.95;;;;;;;4.29;100.00;98983.59;10308896;28;20080;-56
2021/11/16 07:50:47;;;;;;;90.63;40.92;;;;;;;4.34;100.00;98972.63;10291526;28;20125;-59
2021/11/16 07:56:00;;;;;;;91.53;41.08;;;;;;;4.40;100.00;98979.34;10292898;28;20055;-51
2021/11/16 08:01:08;;;;;;;90.32;40.00;;;;;;;4.42;100.00;98967.59;10290579;28;20384;-57
2021/11/16 08:06:17;;;;;;;97.53;41.95;;;;;;;4.47;100.00;98965.44;10279503;28;20053;-57
2021/11/16 08:11:26;;;;;;;97.82;42.22;;;;;;;4.53;100.00;98968.63;10282319;28;20082;-56
2021/11/16 08:16:30;;;;;;;92.57;41.88;;;;;;;4.58;100.00;98964.69;10286010;28;20046;-58
2021/11/16 08:21:35;;;;;;;87.45;42.35;;;;;;;4.62;100.00;98957.28;10304319;28;20522;-55
2021/11/16 08:26:41;;;;;;;107.25;48.63;;;;;;;4.67;100.00;98956.97;10298950;28;20046;-58
2021/11/16 08:31:50;;;;;;;97.10;43.83;;;;;;;4.70;100.00;98959.41;10284432;28;20412;-52
2021/11/16 08:36:55;;;;;;;103.80;43.85;;;;;;;4.74;100.00;98960.91;10296928;28;20055;-56
2021/11/16 08:41:59;;;;;;;102.70;45.33;;;;;;;4.76;100.00;98959.81;10285316;28;20054;-54
2021/11/16 08:47:11;;;;;;;95.65;41.53;;;;;;;4.80;100.00;98962.28;10285435;28;20048;-54
2021/11/16 08:52:20;;;;;;;101.18;44.35;;;;;;;4.83;100.00;98970.06;10299681;28;20121;-53
2021/11/16 08:57:24;;;;;;;96.15;42.50;;;;;;;4.78;100.00;98962.38;10279347;28;20047;-54
2021/11/16 09:02:30;;;;;;;97.50;42.95;;;;;;;4.82;100.00;98955.88;10300786;28;20084;-54
2021/11/16 09:07:33;;;;;;;95.68;42.40;;;;;;;4.84;100.00;98963.75;10297688;28;20407;-55
2021/11/16 09:12:41;;;;;;;83.30;38.80;;;;;;;4.80;100.00;98960.44;10301065;28;20043;-52
2021/11/16 09:17:45;;;;;;;86.82;41.10;;;;;;;4.83;100.00;98954.91;10297870;28;20085;-53
2021/11/16 09:22:51;;;;;;;94.47;42.42;;;;;;;4.81;100.00;98951.47;10313538;28;20101;-60
2021/11/16 09:28:01;;;;;;;91.80;41.33;;;;;;;4.84;100.00;98943.25;10291280;28;20057;-61
2021/11/16 09:33:08;;;;;;;93.85;41.90;;;;;;;4.86;100.00;98944.00;10316084;28;20050;-58
2021/11/16 09:38:12;;;;;;;85.90;39.10;;;;;;;4.86;100.00;98952.00;10315037;28;20051;-52
2021/11/16 09:43:16;;;;;;;88.88;39.33;;;;;;;4.90;100.00;98945.47;10320066;28;20141;-51
2021/11/16 09:48:26;;;;;;;87.07;38.92;;;;;;;4.96;100.00;98948.66;10296702;28;20357;-55
2021/11/16 09:53:29;;;;;;;89.30;41.60;;;;;;;4.96;100.00;98935.31;10315836;28;20051;-56
2021/11/16 09:58:38;;;;;;;82.40;39.00;;;;;;;4.94;100.00;98944.28;10297981;28;20050;-55
2021/11/16 10:03:42;;;;;;;81.72;37.95;;;;;;;4.99;100.00;98935.09;10312778;28;20403;-56
2021/11/16 10:08:45;;;;;;;84.43;40.10;;;;;;;4.96;100.00;98928.13;10301642;28;20043;-54
2021/11/16 10:13:48;;;;;;;88.28;39.70;;;;;;;5.01;100.00;98922.47;10315017;28;20579;-54
2021/11/16 10:18:53;;;;;;;87.90;39.75;;;;;;;4.99;100.00;98935.94;10318617;28;20058;-54
2021/11/16 10:23:56;;;;;;;80.88;39.30;;;;;;;5.04;100.00;98935.59;10309890;28;20046;-55
2021/11/16 10:29:00;;;;;;;80.38;38.58;;;;;;;5.06;100.00;98917.66;10317780;28;20043;-55
2021/11/16 10:34:05;;;;;;;84.07;38.58;;;;;;;5.12;100.00;98921.69;10311156;28;20034;-54
2021/11/16 10:39:07;;;;;;;84.78;39.83;;;;;;;5.20;100.00;98924.63;10312187;28;20510;-54
2021/11/16 10:44:13;;;;;;;81.88;38.92;;;;;;;5.22;100.00;98918.22;10318941;28;20066;-60
2021/11/16 10:49:20;;;;;;;75.47;37.35;;;;;;;5.25;100.00;98901.94;10322843;28;20066;-55
2021/11/16 10:54:23;;;;;;;81.50;38.72;;;;;;;5.22;100.00;98896.84;10321041;28;20043;-57
2021/11/16 10:59:29;;;;;;;77.93;39.65;;;;;;;5.24;100.00;98891.38;10318212;28;20103;-59
2021/11/16 11:04:41;;;;;;;81.90;38.03;;;;;;;5.27;100.00;98895.63;10322760;28;20050;-58
2021/11/16 11:09:56;;;;;;;76.53;39.17;;;;;;;5.24;100.00;98900.22;10325100;28;20080;-53
2021/11/16 11:14:59;;;;;;;89.90;41.70;;;;;;;5.24;100.00;98904.72;10296892;28;20149;-56
2021/11/16 11:20:10;;;;;;;77.78;39.10;;;;;;;5.30;100.00;98901.59;10306912;23;20312;-83
2021/11/16 11:25:35;;;;;;;;;;;;;;;5.22;100.00;98912.00;10318810;28;20076;-82
2021/11/16 11:30:38;;;;;;;68.95;36.13;;;;;;;5.33;100.00;98904.03;10317314;28;19922;-83
2021/11/16 11:35:42;;;;;;;71.53;35.58;;;;;;;5.35;100.00;98895.91;10296090;28;20046;-83
2021/11/16 11:40:45;;;;;;;71.70;35.08;;;;;;;5.42;100.00;98894.47;10310018;28;20061;-83
2021/11/16 11:45:49;;;;;;;63.63;36.65;;;;;;;5.50;100.00;98894.72;10307322;28;20154;-83
2021/11/16 11:50:56;;;;;;;65.32;34.88;;;;;;;5.50;100.00;98876.03;10310270;28;20065;-84
2021/11/16 11:56:02;;;;;;;66.55;35.72;;;;;;;5.61;100.00;98877.00;10314066;28;20141;-84
2021/11/16 12:01:08;;;;;;;68.38;37.38;;;;;;;5.59;100.00;98881.63;10333943;28;20066;-81
2021/11/16 12:06:12;;;;;;;65.40;35.72;;;;;;;5.55;100.00;98884.56;10346153;28;20055;-85
2021/11/16 12:11:22;;;;;;;66.18;35.63;;;;;;;5.59;100.00;98866.44;10300371;28;20414;-86
2021/11/16 12:16:33;;;;;;;71.53;36.90;;;;;;;5.54;100.00;98877.50;10319163;28;20073;-86
2021/11/16 12:21:40;;;;;;;71.88;36.40;;;;;;;5.48;100.00;98856.56;10301125;28;20053;-83
2021/11/16 12:27:01;;;;;;;72.78;36.53;;;;;;;5.48;100.00;98858.41;10320843;28;20054;-84
2021/11/16 12:32:17;;;;;;;85.78;40.63;;;;;;;5.59;100.00;98870.94;10301737;28;20465;-84
2021/11/16 12:37:50;;;;;;;82.32;41.40;;;;;;;5.59;100.00;98860.25;10317547;28;20054;-83
2021/11/16 12:43:17;;;;;;;90.90;42.40;;;;;;;5.59;100.00;98850.41;10297250;28;20134;-84
2021/11/16 12:48:39;;;;;;;84.28;42.95;;;;;;;5.60;100.00;98843.22;10302557;28;20042;-81
2021/11/16 12:53:56;;;;;;;81.03;40.30;;;;;;;5.63;100.00;98834.97;10303348;28;20054;-79
2021/11/16 12:58:59;;;;;;;86.70;43.10;;;;;;;5.62;100.00;98830.59;10327311;28;20444;-83
2021/11/16 13:04:06;;;;;;;82.10;42.25;;;;;;;5.66;100.00;98832.06;10303166;28;20058;-83
2021/11/16 13:09:31;;;;;;;86.78;42.47;;;;;;;5.62;100.00;98817.25;10287977;28;20054;-82
2021/11/16 13:14:49;;;;;;;94.05;44.25;;;;;;;5.61;100.00;98812.88;10293311;28;20076;-84
2021/11/16 13:20:09;;;;;;;88.40;43.35;;;;;;;5.63;100.00;98800.22;10311874;28;20047;-84
2021/11/16 13:25:38;;;;;;;87.78;41.97;;;;;;;5.55;100.00;98804.38;10289256;28;20138;-83
2021/11/16 13:30:42;;;;;;;87.70;42.45;;;;;;;5.58;100.00;98807.78;10289039;28;20491;-83
2021/11/16 13:36:04;;;;;;;91.65;42.80;;;;;;;5.64;100.00;98799.25;10295955;28;20051;-85
2021/11/16 13:41:10;;;;;;;86.40;42.50;;;;;;;5.64;100.00;98793.91;10297145;28;20450;-81
2021/11/16 13:46:14;;;;;;;87.22;43.63;;;;;;;5.63;100.00;98793.09;10322205;28;20043;-84
2021/11/16 13:51:22;;;;;;;92.78;43.25;;;;;;;5.63;100.00;98800.22;10294633;28;20137;-82
2021/11/16 13:56:28;;;;;;;83.05;41.28;;;;;;;5.57;100.00;98800.72;10302157;28;20582;-83
2021/11/16 14:01:36;;;;;;;87.68;42.78;;;;;;;5.55;100.00;98812.38;10302187;28;20050;-83
2021/11/16 14:06:40;;;;;;;90.30;43.55;;;;;;;5.51;100.00;98802.06;10297322;28;20049;-82
2021/11/16 14:11:54;;;;;;;89.82;42.15;;;;;;;5.46;100.00;98797.06;10298667;28;20049;-83
2021/11/16 14:16:59;;;;;;;95.38;43.50;;;;;;;5.48;100.00;98797.78;10309099;28;20139;-85
2021/11/16 14:22:02;;;;;;;88.10;42.13;;;;;;;5.43;100.00;98802.66;10302961;28;20055;-83
2021/11/16 14:27:07;;;;;;;93.57;41.92;;;;;;;5.47;100.00;98793.41;10325188;28;20066;-83
2021/11/16 14:32:19;;;;;;;85.85;40.55;;;;;;;5.47;100.00;98797.91;10306276;28;20570;-84
2021/11/16 14:37:22;;;;;;;88.43;41.25;;;;;;;5.45;100.00;98783.81;10312038;28;20080;-84
2021/11/16 14:42:31;;;;;;;92.28;41.53;;;;;;;5.45;100.00;98790.03;10310106;28;20110;-85
2021/11/16 14:47:38;;;;;;;93.20;40.75;;;;;;;5.41;100.00;98780.53;10305297;28;20042;-85
2021/11/16 14:52:43;;;;;;;87.18;41.75;;;;;;;5.40;100.00;98781.50;10304476;28;20086;-86
2021/11/16 14:57:52;;;;;;;90.65;40.53;;;;;;;5.41;100.00;98788.56;10301832;28;20061;-83
2021/11/16 15:03:00;;;;;;;93.75;40.60;;;;;;;5.37;100.00;98792.44;10347333;28;20066;-82
2021/11/16 15:08:08;;;;;;;94.18;42.95;;;;;;;5.35;100.00;98795.22;10322787;23;20047;-53
2021/11/16 15:13:13;;;;;;;96.53;40.50;;;;;;;5.33;100.00;98789.16;10255073;28;20479;-59
2021/11/16 15:18:16;;;;;;;89.65;42.47;;;;;;;5.25;100.00;98789.72;10281471;28;20047;-54
2021/11/16 15:23:25;;;;;;;91.72;42.10;;;;;;;5.24;100.00;98777.34;10272540;28;20049;-56
2021/11/16 15:28:53;;;;;;;95.13;42.30;;;;;;;5.20;100.00;98777.69;10261516;28;21138;-54
2021/11/16 15:34:02;;;;;;;92.63;41.58;;;;;;;5.10;100.00;98769.56;10280038;28;20114;-56
2021/11/16 15:39:08;;;;;;;88.53;41.00;;;;;;;5.11;100.00;98770.41;10280071;28;20038;-52
2021/11/16 15:44:32;;;;;;;96.13;42.60;;;;;;;5.11;100.00;98770.41;10281581;28;20054;-53
2021/11/16 15:49:59;;;;;;;89.55;41.58;;;;;;;5.13;100.00;98774.66;10282384;28;20066;-53
2021/11/16 16:00:31;;;;;;;95.78;41.40;;;;;;;5.13;100.00;98765.81;10276517;28;20051;-57
2021/11/16 16:05:34;;;;;;;96.18;41.97;;;;;;;5.16;100.00;98768.25;10280086;28;20418;-57
2021/11/16 16:10:40;;;;;;;94.78;42.22;;;;;;;5.19;100.00;98784.88;10274599;28;20042;-56
2021/11/16 16:15:47;;;;;;;99.40;43.42;;;;;;;5.19;100.00;98774.19;10277740;28;20054;-56
2021/11/16 16:20:50;;;;;;;94.97;41.65;;;;;;;5.21;100.00;98777.59;10276235;28;20051;-59
2021/11/16 16:25:55;;;;;;;95.75;41.80;;;;;;;5.24;100.00;98776.50;10272044;28;20502;-54
2021/11/16 16:31:00;;;;;;;93.75;43.00;;;;;;;5.25;100.00;98778.22;10275511;28;20051;-53
2021/11/16 16:36:05;;;;;;;101.45;43.45;;;;;;;5.25;100.00;98773.69;10269375;28;20047;-52
2021/11/16 16:41:23;;;;;;;100.25;43.85;;;;;;;5.28;100.00;98766.44;10268151;28;20047;-58
2021/11/16 16:46:33;;;;;;;95.05;41.78;;;;;;;5.28;100.00;98766.44;10281071;28;20130;-56
2021/11/16 16:51:46;;;;;;;97.68;42.60;;;;;;;5.29;100.00;98768.13;10266311;28;20050;-54
2021/11/16 16:56:52;;;;;;;104.22;44.92;;;;;;;5.30;100.00;98769.84;10253253;28;20043;-53
2021/11/16 17:02:04;;;;;;;99.50;44.20;;;;;;;5.30;100.00;98769.84;10265986;28;20585;-55
2021/11/16 17:07:08;;;;;;;;;;;;;;;5.24;100.00;98761.31;10269874;28;20055;-55
2021/11/16 17:12:19;;;;;;;113.75;46.20;;;;;;;5.27;100.00;98764.72;10264407;28;19933;-57
2021/11/16 17:17:31;;;;;;;118.25;49.13;;;;;;;5.26;100.00;98758.53;10259547;28;20055;-53
2021/11/16 17:22:35;;;;;;;118.20;47.73;;;;;;;5.24;100.00;98755.97;10281734;28;20058;-52
2021/11/16 17:27:38;;;;;;;121.13;48.83;;;;;;;5.23;100.00;98754.28;10263213;28;20047;-53
2021/11/16 17:32:43;;;;;;;121.05;49.80;;;;;;;5.24;100.00;98745.28;10275609;28;20061;-58
2021/11/16 17:37:46;;;;;;;119.15;48.15;;;;;;;5.23;100.00;98754.28;10280824;28;20081;-52
2021/11/16 17:42:49;;;;;;;111.32;47.50;;;;;;;5.22;100.00;98749.06;10275921;28;20202;-52
2021/11/16 17:47:54;;;;;;;107.72;47.15;;;;;;;5.22;100.00;98747.25;10277880;28;20043;-51
2021/11/16 17:52:58;;;;;;;138.38;62.35;;;;;;;5.21;100.00;98729.53;10272412;28;20514;-59
2021/11/16 17:58:01;;;;;;;127.18;54.78;;;;;;;5.22;100.00;98723.22;10277907;28;20154;-60
2021/11/16 18:03:06;;;;;;;110.13;48.10;;;;;;;5.22;100.00;98725.00;10266772;28;20121;-62
2021/11/16 18:08:11;;;;;;;108.93;46.40;;;;;;;5.23;100.00;98716.88;10275331;28;20055;-63
2021/11/16 18:13:16;;;;;;;99.72;44.70;;;;;;;5.22;100.00;98720.53;10269289;28;20049;-62
2021/11/16 18:18:20;;;;;;;107.50;46.70;;;;;;;5.23;100.00;98721.38;10266434;28;20050;-59
2021/11/16 18:23:23;;;;;;;112.22;47.22;;;;;;;5.22;100.00;98717.00;10275364;28;20473;-56
2021/11/16 18:28:26;;;;;;;118.35;47.78;;;;;;;5.23;100.00;98716.88;10271274;28;20057;-52
2021/11/16 18:34:18;;;;;;;110.10;45.75;;;;;;;5.24;100.00;98717.75;10272021;28;20051;-57
2021/11/16 18:39:30;;;;;;;108.68;46.20;;;;;;;5.25;100.00;98716.78;10246489;28;20059;-58
2021/11/16 18:44:36;;;;;;;117.80;47.22;;;;;;;5.20;100.00;98725.16;10258979;28;20098;-58
2021/11/16 18:49:41;;;;;;;112.53;47.95;;;;;;;5.20;100.00;98714.47;10272971;28;20046;-59
2021/11/16 18:54:47;;;;;;;136.30;52.80;;;;;;;5.17;100.00;98704.00;10265439;28;20039;-59
2021/11/16 18:59:52;;;;;;;124.28;50.22;;;;;;;5.16;100.00;98707.66;10266186;28;20077;-60
2021/11/16 19:04:55;;;;;;;124.10;48.67;;;;;;;5.16;100.00;98710.31;10251189;28;20051;-61
2021/11/16 19:10:00;;;;;;;129.57;50.15;;;;;;;5.17;100.00;98705.84;10277779;28;20578;-60
2021/11/16 19:15:03;;;;;;;125.15;50.85;;;;;;;5.17;100.00;98709.34;10284515;28;20047;-59
2021/11/16 19:20:08;;;;;;;119.75;49.47;;;;;;;5.17;100.00;98706.69;10283642;28;20126;-53
2021/11/16 19:25:15;;;;;;;118.95;50.00;;;;;;;5.14;100.00;98709.59;10285557;28;20046;-55
2021/11/16 19:30:23;;;;;;;126.85;50.17;;;;;;;5.07;100.00;98719.88;10283951;28;20110;-56
2021/11/16 19:35:30;;;;;;;118.30;49.17;;;;;;;5.05;100.00;98716.50;10281527;28;20496;-55
2021/11/16 19:40:35;;;;;;;127.18;49.53;;;;;;;5.01;100.00;98712.38;10260755;28;20499;-58
2021/11/16 19:45:43;;;;;;;130.75;51.97;;;;;;;4.99;100.00;98724.16;10280789;28;20541;-56
2021/11/16 19:50:50;;;;;;;133.70;51.30;;;;;;;4.99;100.00;98724.16;10276048;28;20092;-58
2021/11/16 19:55:57;;;;;;;131.98;51.33;;;;;;;4.97;100.00;98731.41;10273175;28;20050;-54
2021/11/16 20:01:00;;;;;;;130.52;52.10;;;;;;;4.94;100.00;98728.00;10280107;28;20501;-54
2021/11/16 20:06:03;;;;;;;129.18;49.92;;;;;;;4.94;100.00;98733.34;10278320;28;20503;-56
2021/11/16 20:11:08;;;;;;;134.02;51.40;;;;;;;4.95;100.00;98734.19;10275599;28;20130;-56
2021/11/16 20:16:12;;;;;;;136.80;52.80;;;;;;;4.93;100.00;98734.31;10276512;28;20502;-56
2021/11/16 20:21:15;;;;;;;135.15;52.20;;;;;;;4.93;100.00;98742.31;10284416;28;20447;-58
2021/11/16 20:26:22;;;;;;;141.18;55.63;;;;;;;4.94;100.00;98749.38;10274778;28;20137;-53
2021/11/16 20:31:30;;;;;;;152.82;55.40;;;;;;;4.92;100.00;98747.78;10270301;28;20043;-53
2021/11/16 20:36:35;;;;;;;158.90;56.90;;;;;;;4.87;100.00;98747.28;10275453;28;20086;-53
2021/11/16 20:41:58;;;;;;;161.80;56.63;;;;;;;4.87;100.00;98745.47;10271690;28;20045;-53
2021/11/16 20:47:25;;;;;;;166.93;56.70;;;;;;;4.85;100.00;98749.22;10270386;28;20388;-53
2021/11/16 21:03:12;;;;;;;151.32;54.78;;;;;;;4.83;100.00;98741.34;10257530;28;20460;-56
2021/11/16 21:08:15;;;;;;;156.40;56.83;;;;;;;4.84;100.00;98742.16;10272572;28;20062;-53
2021/11/16 21:13:19;;;;;;;152.43;56.53;;;;;;;4.85;100.00;98734.06;10279852;28;20041;-56
2021/11/16 21:18:23;;;;;;;158.25;57.03;;;;;;;4.81;100.00;98729.91;10270853;28;20054;-55
2021/11/16 21:23:26;;;;;;;166.48;58.50;;;;;;;4.77;100.00;98726.63;10284236;28;20102;-56
2021/11/16 21:28:33;;;;;;;175.73;59.03;;;;;;;4.77;100.00;98723.09;10284466;28;20153;-57
2021/11/16 21:33:36;;;;;;;176.75;60.30;;;;;;;4.76;100.00;98726.75;10279663;28;20161;-56
2021/11/16 21:38:40;;;;;;;166.30;59.53;;;;;;;4.76;100.00;98726.75;10266211;28;20055;-58
2021/11/16 21:43:47;;;;;;;172.85;59.58;;;;;;;4.77;100.00;98723.09;10270623;28;20142;-57
2021/11/16 21:48:50;;;;;;;175.95;59.72;;;;;;;4.76;100.00;98724.09;10278810;28;20106;-56
2021/11/16 21:53:53;;;;;;;186.40;61.78;;;;;;;4.75;100.00;98730.41;10280013;28;20050;-55
2021/11/16 21:58:58;;;;;;;189.20;63.08;;;;;;;4.72;100.00;98726.13;10280126;28;20050;-54
2021/11/16 22:04:01;;;;;;;177.95;62.08;;;;;;;4.66;100.00;98725.72;10267529;28;20066;-60
2021/11/16 22:09:09;;;;;;;183.02;61.50;;;;;;;4.67;100.00;98714.09;10280327;28;20464;-54
2021/11/16 22:14:13;;;;;;;179.52;60.17;;;;;;;4.67;100.00;98714.09;10278861;28;20042;-52
2021/11/16 22:19:17;;;;;;;160.20;56.65;;;;;;;4.70;100.00;98713.88;10280572;28;20051;-55
2021/11/16 22:24:21;;;;;;;160.90;57.30;;;;;;;4.71;100.00;98704.91;10275217;28;20065;-53
2021/11/16 22:29:52;;;;;;;145.85;53.30;;;;;;;4.73;100.00;98706.47;10278165;28;20046;-52
2021/11/16 22:35:07;;;;;;;164.45;57.10;;;;;;;4.73;100.00;98700.28;10278162;28;20046;-52
2021/11/16 22:40:13;;;;;;;155.85;57.17;;;;;;;4.75;100.00;98696.53;10286754;28;20464;-54
2021/11/16 22:45:21;;;;;;;152.65;55.03;;;;;;;4.78;100.00;98703.44;10284968;28;20047;-57
2021/11/16 22:50:25;;;;;;;167.82;56.65;;;;;;;4.78;100.00;98692.75;10272798;28;20146;-56
2021/11/16 22:55:29;;;;;;;163.57;55.15;;;;;;;4.79;100.00;98697.13;10254149;28;20050;-56
